createdAt,value
2023-02-09T00:01:10.392Z,100360.00
2023-02-09T00:03:59.705Z,100368.00
2023-02-09T00:06:47.322Z,100371.00
2023-02-09T00:09:34.927Z,100373.00
2023-02-09T00:12:41.657Z,100363.00
2023-02-09T00:15:29.300Z,100364.00
2023-02-09T00:18:17.789Z,100360.00
2023-02-09T00:21:10.950Z,100369.00
2023-02-09T00:24:00.170Z,100361.00
2023-02-09T00:26:48.390Z,100357.00
2023-02-09T00:29:36.569Z,100372.00
2023-02-09T00:32:24.214Z,100368.00
2023-02-09T00:35:11.796Z,100358.00
2023-02-09T00:37:59.345Z,100361.00
2023-02-09T00:40:49.286Z,100355.00
2023-02-09T00:43:36.932Z,100345.00
2023-02-09T00:46:24.487Z,100333.00
2023-02-09T00:49:12.383Z,100335.00
2023-02-09T00:52:00.002Z,100311.00
2023-02-09T00:54:47.681Z,100316.00
2023-02-09T00:57:36.262Z,100313.00
2023-02-09T01:00:23.906Z,100312.00
2023-02-09T01:03:11.850Z,100307.00
2023-02-09T01:06:00.250Z,100306.00
2023-02-09T01:08:48.328Z,100311.00
2023-02-09T01:11:35.929Z,100314.00
2023-02-09T01:14:24.468Z,100319.00
2023-02-09T01:17:12.185Z,100308.00
2023-02-09T01:20:00.049Z,100301.00
2023-02-09T01:22:47.647Z,100291.00
2023-02-09T01:25:35.633Z,100281.00
2023-02-09T01:28:23.213Z,100280.00
2023-02-09T01:31:32.612Z,100288.00
2023-02-09T01:34:20.722Z,100288.00
2023-02-09T01:37:08.341Z,100290.00
2023-02-09T01:39:55.970Z,100276.00
2023-02-09T01:42:43.525Z,100274.00
2023-02-09T01:45:47.372Z,100276.00
2023-02-09T01:48:34.879Z,100272.00
2023-02-09T01:51:23.353Z,100263.00
2023-02-09T01:54:21.262Z,100270.00
2023-02-09T01:57:20.571Z,100256.00
2023-02-09T02:00:16.658Z,100262.00
2023-02-09T02:03:10.615Z,100254.00
2023-02-09T02:06:06.744Z,100256.00
2023-02-09T02:09:02.440Z,100252.00
2023-02-09T02:11:50.216Z,100247.00
2023-02-09T02:14:40.153Z,100236.00
2023-02-09T02:17:30.601Z,100242.00
2023-02-09T02:20:56.049Z,100245.00
2023-02-09T02:24:17.845Z,100231.00
2023-02-09T02:27:30.829Z,100245.00
2023-02-09T02:30:37.851Z,100234.00
2023-02-09T02:34:00.519Z,100230.00
2023-02-09T02:37:11.826Z,100230.00
2023-02-09T02:40:40.644Z,100224.00
2023-02-09T02:43:57.277Z,100216.00
2023-02-09T02:46:54.573Z,100209.00
2023-02-09T02:50:00.206Z,100208.00
2023-02-09T02:52:53.114Z,100207.00
2023-02-09T02:55:44.513Z,100197.00
2023-02-09T02:58:38.473Z,100202.00
2023-02-09T03:01:34.287Z,100208.00
2023-02-09T03:04:22.994Z,100202.00
2023-02-09T03:07:11.464Z,100201.00
2023-02-09T03:10:00.991Z,100196.00
2023-02-09T03:13:17.852Z,100201.00
2023-02-09T03:16:47.100Z,100184.00
2023-02-09T03:19:43.341Z,100175.00
2023-02-09T03:22:47.612Z,100188.00
2023-02-09T03:25:48.754Z,100181.00
2023-02-09T03:28:41.859Z,100196.00
2023-02-09T03:31:31.615Z,100194.00
2023-02-09T03:34:19.754Z,100169.00
2023-02-09T03:37:07.710Z,100174.00
2023-02-09T03:39:55.405Z,100169.00
2023-02-09T03:42:43.063Z,100179.00
2023-02-09T03:45:30.647Z,100189.00
2023-02-09T03:48:18.205Z,100197.00
2023-02-09T03:51:06.956Z,100194.00
2023-02-09T03:53:54.429Z,100187.00
2023-02-09T03:56:42.029Z,100196.00
2023-02-09T03:59:30.081Z,100199.00
2023-02-09T04:02:17.713Z,100197.00
2023-02-09T04:05:06.099Z,100194.00
2023-02-09T04:07:53.942Z,100191.00
2023-02-09T04:10:41.457Z,100207.00
2023-02-09T04:13:29.783Z,100194.00
2023-02-09T04:16:20.675Z,100199.00
2023-02-09T04:19:09.811Z,100194.00
2023-02-09T04:21:57.498Z,100193.00
2023-02-09T04:24:45.134Z,100193.00
2023-02-09T04:27:32.660Z,100201.00
2023-02-09T04:30:20.397Z,100205.00
2023-02-09T04:33:07.927Z,100205.00
2023-02-09T04:35:55.480Z,100202.00
2023-02-09T04:38:43.017Z,100208.00
2023-02-09T04:41:30.557Z,100208.00
2023-02-09T04:44:18.111Z,100210.00
2023-02-09T04:47:05.587Z,100209.00
2023-02-09T04:49:53.207Z,100207.00
2023-02-09T04:52:40.697Z,100214.00
2023-02-09T04:55:28.247Z,100207.00
2023-02-09T04:58:38.685Z,100206.00
2023-02-09T05:01:26.967Z,100200.00
2023-02-09T05:04:14.579Z,100201.00
2023-02-09T05:07:02.405Z,100195.00
2023-02-09T05:09:50.085Z,100197.00
2023-02-09T05:12:37.651Z,100210.00
2023-02-09T05:15:25.717Z,100209.00
2023-02-09T05:18:13.669Z,100202.00
2023-02-09T05:21:01.272Z,100202.00
2023-02-09T05:23:48.817Z,100215.00
2023-02-09T05:26:37.015Z,100201.00
2023-02-09T05:29:24.512Z,100212.00
2023-02-09T05:32:12.179Z,100211.00
2023-02-09T05:34:59.702Z,100205.00
2023-02-09T05:37:47.234Z,100211.00
2023-02-09T05:40:34.749Z,100213.00
2023-02-09T05:43:22.315Z,100211.00
2023-02-09T05:46:09.853Z,100208.00
2023-02-09T05:48:57.440Z,100209.00
2023-02-09T05:51:45.007Z,100208.00
2023-02-09T05:54:33.037Z,100216.00
2023-02-09T05:57:20.655Z,100218.00
2023-02-09T06:00:09.342Z,100213.00
2023-02-09T06:02:57.254Z,100208.00
2023-02-09T06:05:46.102Z,100205.00
2023-02-09T06:08:33.644Z,100203.00
2023-02-09T06:11:21.179Z,100209.00
2023-02-09T06:14:08.788Z,100210.00
2023-02-09T06:16:56.350Z,100211.00
2023-02-09T06:19:43.897Z,100221.00
2023-02-09T06:22:32.097Z,100214.00
2023-02-09T06:25:19.690Z,100218.00
2023-02-09T06:28:07.520Z,100219.00
2023-02-09T06:30:55.217Z,100224.00
2023-02-09T06:33:42.914Z,100228.00
2023-02-09T06:36:30.674Z,100222.00
2023-02-09T06:39:18.154Z,100223.00
2023-02-09T06:42:05.879Z,100226.00
2023-02-09T06:44:53.611Z,100226.00
2023-02-09T06:47:43.229Z,100235.00
2023-02-09T06:50:31.534Z,100235.00
2023-02-09T06:53:19.381Z,100233.00
2023-02-09T06:56:07.629Z,100232.00
2023-02-09T06:58:55.650Z,100227.00
2023-02-09T07:01:43.259Z,100234.00
2023-02-09T07:04:30.833Z,100233.00
2023-02-09T07:07:18.754Z,100244.00
2023-02-09T07:10:08.872Z,100235.00
2023-02-09T07:12:58.885Z,100235.00
2023-02-09T07:15:55.299Z,100245.00
2023-02-09T07:18:43.400Z,100238.00
2023-02-09T07:21:30.933Z,100246.00
2023-02-09T07:24:19.068Z,100237.00
2023-02-09T07:27:08.196Z,100236.00
2023-02-09T07:29:55.806Z,100231.00
2023-02-09T07:32:43.415Z,100228.00
2023-02-09T07:35:30.966Z,100233.00
2023-02-09T07:38:18.569Z,100229.00
2023-02-09T07:41:08.340Z,100232.00
2023-02-09T07:43:56.715Z,100220.00
2023-02-09T07:46:44.333Z,100223.00
2023-02-09T07:49:35.701Z,100228.00
2023-02-09T07:52:23.256Z,100235.00
2023-02-09T07:55:10.776Z,100229.00
2023-02-09T07:57:58.436Z,100225.00
2023-02-09T08:00:48.181Z,100222.00
2023-02-09T08:03:37.050Z,100219.00
2023-02-09T08:06:43.581Z,100230.00
2023-02-09T08:09:31.112Z,100235.00
2023-02-09T08:12:20.737Z,100233.00
2023-02-09T08:15:08.967Z,100231.00
2023-02-09T08:18:00.509Z,100225.00
2023-02-09T08:20:49.515Z,100240.00
2023-02-09T08:23:40.350Z,100228.00
2023-02-09T08:26:28.212Z,100228.00
2023-02-09T08:29:15.886Z,100223.00
2023-02-09T08:32:03.511Z,100222.00
2023-02-09T08:34:51.156Z,100218.00
2023-02-09T08:37:38.721Z,100218.00
2023-02-09T08:40:26.279Z,100212.00
2023-02-09T08:43:14.398Z,100220.00
2023-02-09T08:46:13.763Z,100221.00
2023-02-09T08:49:01.401Z,100218.00
2023-02-09T08:51:49.073Z,100211.00
2023-02-09T08:54:36.798Z,100226.00
2023-02-09T08:57:38.141Z,100216.00
2023-02-09T09:00:30.686Z,100216.00
2023-02-09T09:03:18.235Z,100226.00
2023-02-09T09:06:09.388Z,100222.00
2023-02-09T09:08:56.982Z,100220.00
2023-02-09T09:11:44.464Z,100218.00
2023-02-09T09:14:32.097Z,100214.00
2023-02-09T09:17:19.629Z,100210.00
2023-02-09T09:20:08.233Z,100206.00
2023-02-09T09:22:59.611Z,100199.00
2023-02-09T09:25:47.418Z,100211.00
2023-02-09T09:28:35.424Z,100205.00
2023-02-09T09:31:23.366Z,100211.00
2023-02-09T09:34:11.052Z,100206.00
2023-02-09T09:36:58.606Z,100208.00
2023-02-09T09:39:46.095Z,100215.00
2023-02-09T09:42:51.585Z,100202.00
2023-02-09T09:45:39.950Z,100220.00
2023-02-09T09:48:56.202Z,100220.00
2023-02-09T09:51:50.324Z,100224.00
2023-02-09T09:54:38.674Z,100233.00
2023-02-09T09:57:30.376Z,100221.00
2023-02-09T10:00:24.198Z,100226.00
2023-02-09T10:03:17.983Z,100228.00
2023-02-09T10:06:20.169Z,100226.00
2023-02-09T10:09:31.885Z,100226.00
2023-02-09T10:12:39.635Z,100227.00
2023-02-09T10:15:28.963Z,100234.00
2023-02-09T10:18:18.220Z,100233.00
2023-02-09T10:21:13.517Z,100226.00
2023-02-09T10:24:00.975Z,100217.00
2023-02-09T10:27:27.175Z,100220.00
2023-02-09T10:30:28.901Z,100221.00
2023-02-09T10:33:17.048Z,100223.00
2023-02-09T10:36:08.852Z,100217.00
2023-02-09T10:39:12.556Z,100218.00
2023-02-09T10:42:32.816Z,100217.00
2023-02-09T10:45:47.430Z,100211.00
2023-02-09T10:48:45.529Z,100210.00
2023-02-09T10:51:33.904Z,100207.00
2023-02-09T10:54:22.305Z,100198.00
2023-02-09T10:57:32.001Z,100200.00
2023-02-09T11:00:27.976Z,100196.00
2023-02-09T11:03:27.373Z,100190.00
2023-02-09T11:06:19.588Z,100186.00
2023-02-09T11:09:18.459Z,100185.00
2023-02-09T11:12:12.079Z,100170.00
2023-02-09T11:14:59.972Z,100178.00
2023-02-09T11:18:02.408Z,100180.00
2023-02-09T11:21:00.740Z,100179.00
2023-02-09T11:24:26.237Z,100185.00
2023-02-09T11:27:52.325Z,100176.00
2023-02-09T11:31:05.794Z,100168.00
2023-02-09T11:34:49.828Z,100167.00
2023-02-09T11:38:10.985Z,100151.00
2023-02-09T11:41:21.454Z,100149.00
2023-02-09T11:44:43.205Z,100141.00
2023-02-09T11:48:00.085Z,100142.00
2023-02-09T11:51:00.041Z,100139.00
2023-02-09T11:54:23.218Z,100134.00
2023-02-09T11:57:31.357Z,100138.00
2023-02-09T12:00:25.685Z,100134.00
2023-02-09T12:03:15.078Z,100139.00
2023-02-09T12:06:03.568Z,100135.00
2023-02-09T12:09:10.691Z,100134.00
2023-02-09T12:12:17.080Z,100128.00
2023-02-09T12:15:13.664Z,100123.00
2023-02-09T12:18:16.346Z,100123.00
2023-02-09T12:21:07.089Z,100121.00
2023-02-09T12:23:54.651Z,100117.00
2023-02-09T12:26:44.482Z,100107.00
2023-02-09T12:29:41.964Z,100109.00
2023-02-09T12:32:44.614Z,100114.00
2023-02-09T12:35:41.251Z,100108.00
2023-02-09T12:39:03.887Z,100107.00
2023-02-09T12:41:51.632Z,100100.00
2023-02-09T12:44:54.920Z,100105.00
2023-02-09T12:47:57.648Z,100101.00
2023-02-09T12:50:51.922Z,100097.00
2023-02-09T12:53:46.244Z,100095.00
2023-02-09T12:56:34.424Z,100091.00
2023-02-09T12:59:25.504Z,100094.00
2023-02-09T13:02:22.214Z,100090.00
2023-02-09T13:05:18.306Z,100095.00
2023-02-09T13:08:11.667Z,100090.00
2023-02-09T13:11:26.051Z,100086.00
2023-02-09T13:14:17.745Z,100083.00
2023-02-09T13:17:39.614Z,100082.00
2023-02-09T13:20:45.886Z,100074.00
2023-02-09T13:24:24.364Z,100074.00
2023-02-09T13:27:22.921Z,100075.00
2023-02-09T13:30:29.768Z,100059.00
2023-02-09T13:33:47.670Z,100051.00
2023-02-09T13:37:02.861Z,100055.00
2023-02-09T13:40:04.394Z,100046.00
2023-02-09T13:43:12.697Z,100057.00
2023-02-09T13:46:02.439Z,100058.00
2023-02-09T13:48:49.984Z,100053.00
2023-02-09T13:51:40.557Z,100057.00
2023-02-09T13:54:28.110Z,100059.00
2023-02-09T13:57:38.062Z,100064.00
2023-02-09T14:00:42.614Z,100057.00
2023-02-09T14:03:57.111Z,100051.00
2023-02-09T14:07:03.060Z,100054.00
2023-02-09T14:10:17.366Z,100055.00
2023-02-09T14:13:49.111Z,100048.00
2023-02-09T14:16:51.628Z,100047.00
2023-02-09T14:19:48.856Z,100051.00
2023-02-09T14:22:40.141Z,100050.00
2023-02-09T14:25:30.608Z,100057.00
2023-02-09T14:28:18.486Z,100059.00
2023-02-09T14:31:07.475Z,100055.00
2023-02-09T14:33:57.243Z,100051.00
2023-02-09T14:36:54.782Z,100055.00
2023-02-09T14:40:12.382Z,100059.00
2023-02-09T14:43:11.873Z,100057.00
2023-02-09T14:46:01.861Z,100053.00
2023-02-09T14:48:49.529Z,100051.00
2023-02-09T14:51:37.153Z,100044.00
2023-02-09T14:54:33.023Z,100057.00
2023-02-09T14:57:21.459Z,100060.00
2023-02-09T15:00:25.732Z,100069.00
2023-02-09T15:03:13.229Z,100067.00
2023-02-09T15:06:05.429Z,100066.00
2023-02-09T15:08:53.007Z,100069.00
2023-02-09T15:11:59.622Z,100066.00
2023-02-09T15:14:48.356Z,100068.00
2023-02-09T15:17:35.961Z,100065.00
2023-02-09T15:20:25.526Z,100065.00
2023-02-09T15:23:13.114Z,100070.00
2023-02-09T15:26:00.780Z,100076.00
2023-02-09T15:28:48.847Z,100083.00
2023-02-09T15:31:36.576Z,100088.00
2023-02-09T15:34:24.265Z,100088.00
2023-02-09T15:37:33.088Z,100083.00
2023-02-09T15:41:02.942Z,100077.00
2023-02-09T15:44:08.863Z,100092.00
2023-02-09T15:47:15.262Z,100087.00
2023-02-09T15:50:02.870Z,100091.00
2023-02-09T15:52:50.823Z,100092.00
2023-02-09T15:55:40.039Z,100094.00
2023-02-09T15:58:35.827Z,100091.00
2023-02-09T16:01:23.421Z,100099.00
2023-02-09T16:04:14.269Z,100102.00
2023-02-09T16:07:02.156Z,100109.00
2023-02-09T16:09:49.789Z,100114.00
2023-02-09T16:12:37.331Z,100120.00
2023-02-09T16:15:26.613Z,100124.00
2023-02-09T16:18:14.590Z,100120.00
2023-02-09T16:21:02.315Z,100134.00
2023-02-09T16:23:50.877Z,100119.00
2023-02-09T16:26:38.427Z,100125.00
2023-02-09T16:29:26.358Z,100131.00
2023-02-09T16:32:19.000Z,100132.00
2023-02-09T16:35:16.239Z,100133.00
2023-02-09T16:38:18.311Z,100139.00
2023-02-09T16:41:05.921Z,100136.00
2023-02-09T16:43:53.469Z,100139.00
2023-02-09T16:46:41.328Z,100139.00
2023-02-09T16:49:55.224Z,100139.00
2023-02-09T16:52:44.261Z,100135.00
2023-02-09T16:55:35.541Z,100138.00
2023-02-09T16:58:23.156Z,100140.00
2023-02-09T17:01:21.504Z,100142.00
2023-02-09T17:04:14.008Z,100148.00
2023-02-09T17:07:01.544Z,100154.00
2023-02-09T17:09:49.118Z,100155.00
2023-02-09T17:12:36.720Z,100158.00
2023-02-09T17:15:31.136Z,100165.00
2023-02-09T17:18:42.432Z,100158.00
2023-02-09T17:21:40.027Z,100174.00
2023-02-09T17:24:27.551Z,100171.00
2023-02-09T17:27:15.346Z,100176.00
2023-02-09T17:30:04.443Z,100164.00
2023-02-09T17:33:02.745Z,100168.00
2023-02-09T17:39:01.945Z,100171.00
2023-02-09T17:41:50.237Z,100178.00
2023-02-09T17:44:45.941Z,100177.00
2023-02-09T17:47:34.071Z,100182.00
2023-02-09T17:50:24.848Z,100180.00
2023-02-09T17:53:25.811Z,100183.00
2023-02-09T17:56:16.621Z,100182.00
2023-02-09T17:59:08.339Z,100178.00
2023-02-09T18:01:56.345Z,100175.00
2023-02-09T18:04:44.216Z,100182.00
2023-02-09T18:07:31.846Z,100183.00
2023-02-09T18:10:22.482Z,100184.00
2023-02-09T18:13:17.924Z,100173.00
2023-02-09T18:16:07.067Z,100179.00
2023-02-09T18:18:54.721Z,100183.00
2023-02-09T18:21:54.693Z,100186.00
2023-02-09T18:24:42.241Z,100189.00
2023-02-09T18:27:29.799Z,100181.00
2023-02-09T18:30:20.773Z,100189.00
2023-02-09T18:33:10.542Z,100184.00
2023-02-09T18:35:58.043Z,100192.00
2023-02-09T18:38:47.609Z,100197.00
2023-02-09T18:41:35.271Z,100193.00
2023-02-09T18:44:29.201Z,100193.00
2023-02-09T18:47:16.950Z,100187.00
2023-02-09T18:50:05.585Z,100191.00
2023-02-09T18:52:57.044Z,100187.00
2023-02-09T18:55:44.811Z,100196.00
2023-02-09T18:58:32.911Z,100193.00
2023-02-09T19:01:23.549Z,100192.00
2023-02-09T19:04:11.138Z,100189.00
2023-02-09T19:06:59.361Z,100199.00
2023-02-09T19:09:47.224Z,100200.00
2023-02-09T19:12:35.286Z,100212.00
2023-02-09T19:15:25.898Z,100212.00
2023-02-09T19:18:13.451Z,100210.00
2023-02-09T19:21:06.098Z,100227.00
2023-02-09T19:23:57.088Z,100223.00
2023-02-09T19:26:45.026Z,100216.00
2023-02-09T19:29:34.362Z,100214.00
2023-02-09T19:32:22.763Z,100214.00
2023-02-09T19:35:11.157Z,100214.00
2023-02-09T19:37:59.256Z,100222.00
2023-02-09T19:40:48.123Z,100227.00
2023-02-09T19:43:35.653Z,100226.00
2023-02-09T19:46:24.490Z,100221.00
2023-02-09T19:49:12.991Z,100234.00
2023-02-09T19:52:00.528Z,100239.00
2023-02-09T19:54:50.442Z,100233.00
2023-02-09T19:57:38.068Z,100239.00
2023-02-09T20:00:25.815Z,100239.00
2023-02-09T20:03:15.920Z,100241.00
2023-02-09T20:06:13.128Z,100236.00
2023-02-09T20:09:01.753Z,100236.00
2023-02-09T20:14:41.823Z,100242.00
2023-02-09T20:17:30.362Z,100243.00
2023-02-09T20:20:17.953Z,100241.00
2023-02-09T20:23:05.519Z,100242.00
2023-02-09T20:25:53.192Z,100242.00
2023-02-09T20:28:41.145Z,100235.00
2023-02-09T20:31:34.951Z,100239.00
2023-02-09T20:34:22.809Z,100229.00
2023-02-09T20:37:10.640Z,100228.00
2023-02-09T20:39:58.352Z,100242.00
2023-02-09T20:43:04.672Z,100235.00
2023-02-09T20:46:10.932Z,100239.00
2023-02-09T20:48:58.501Z,100231.00
2023-02-09T20:51:46.611Z,100238.00
2023-02-09T20:54:34.252Z,100243.00
2023-02-09T20:57:29.252Z,100237.00
2023-02-09T21:00:17.363Z,100235.00
2023-02-09T21:03:05.203Z,100219.00
2023-02-09T21:05:52.794Z,100233.00
2023-02-09T21:08:41.497Z,100226.00
2023-02-09T21:11:29.123Z,100223.00
2023-02-09T21:14:27.220Z,100238.00
2023-02-09T21:17:21.190Z,100226.00
2023-02-09T21:20:09.241Z,100241.00
2023-02-09T21:22:56.869Z,100237.00
2023-02-09T21:25:44.894Z,100248.00
2023-02-09T21:28:33.001Z,100250.00
2023-02-09T21:31:23.908Z,100254.00
2023-02-09T21:34:16.200Z,100239.00
2023-02-09T21:37:03.784Z,100241.00
2023-02-09T21:39:51.478Z,100243.00
2023-02-09T21:42:40.090Z,100240.00
2023-02-09T21:45:27.687Z,100248.00
2023-02-09T21:48:15.251Z,100237.00
2023-02-09T21:51:04.153Z,100250.00
2023-02-09T21:53:52.355Z,100260.00
2023-02-09T21:56:40.003Z,100259.00
2023-02-09T21:59:27.863Z,100263.00
2023-02-09T22:02:18.719Z,100268.00
2023-02-09T22:05:07.719Z,100270.00
2023-02-09T22:07:55.444Z,100274.00
2023-02-09T22:10:43.211Z,100267.00
2023-02-09T22:13:31.921Z,100272.00
2023-02-09T22:16:22.691Z,100274.00
2023-02-09T22:19:10.341Z,100281.00
2023-02-09T22:22:00.550Z,100283.00
2023-02-09T22:24:48.133Z,100287.00
2023-02-09T22:27:35.703Z,100280.00
2023-02-09T22:30:23.277Z,100283.00
2023-02-09T22:33:10.751Z,100288.00
2023-02-09T22:35:58.246Z,100290.00
2023-02-09T22:38:46.054Z,100290.00
2023-02-09T22:41:33.923Z,100290.00
2023-02-09T22:44:21.474Z,100288.00
2023-02-09T22:47:09.058Z,100297.00
2023-02-09T22:49:56.766Z,100293.00
2023-02-09T22:52:44.423Z,100299.00
2023-02-09T22:55:31.965Z,100300.00
2023-02-09T22:58:19.541Z,100305.00
2023-02-09T23:01:07.974Z,100302.00
2023-02-09T23:03:56.171Z,100307.00
2023-02-09T23:06:43.774Z,100308.00
2023-02-09T23:09:31.974Z,100313.00
2023-02-09T23:12:20.129Z,100313.00
2023-02-09T23:15:08.471Z,100305.00
2023-02-09T23:17:55.954Z,100310.00
2023-02-09T23:20:44.266Z,100305.00
2023-02-09T23:23:32.088Z,100307.00
2023-02-09T23:26:21.946Z,100303.00
2023-02-09T23:29:13.301Z,100299.00
2023-02-09T23:32:01.214Z,100314.00
2023-02-09T23:34:48.828Z,100322.00
2023-02-09T23:37:37.913Z,100311.00
2023-02-09T23:40:25.953Z,100310.00
2023-02-09T23:43:14.671Z,100309.00
2023-02-09T23:46:07.654Z,100311.00
2023-02-09T23:48:56.085Z,100316.00
2023-02-09T23:51:46.774Z,100320.00
2023-02-09T23:54:34.305Z,100317.00
2023-02-09T23:57:23.718Z,100323.00
